Harbinger, NC

2:21 AM EDT on September 17, 2014 (GMT -0400)
First Flight | Change Station
CLOSE
Current Station
Airport
Location: Kill Devil Hills,
Elevation: 13 ft
Nearby Weather Stations

Elev 13 ft 36.02 °N, 75.67 °W | Updated 6 minutes ago

Mostly Cloudy
Mostly Cloudy
72 °F
Feels Like 72 °F
N
4
Wind Variable Wind from ENE

Today
High -- | Low -- °F
--% Chance of Precip.
Yesterday
High -- | Low -- °F
Precip. -- in
6:47 AM 7:07 PM
Last Quarter, 39% visible
Pressure 29.96 in
Visibility 10.0 miles
Clouds Mostly Cloudy 4600 ft
Dew Point 64 °F
Humidity 75%
Rainfall 0.00 in
Snow Depth Not available.
UV 0 out of 12
Pollen 5.20 out of 12
Air Quality Not available.
Flu Activity Not available.
METAR KFFA 170615Z AUTO 07003KT 10SM BKN046 22/18 A2996 RMK AO2 T02230176

More Conditions Fewer Conditions

Pressure 29.96 in
Visibility 10.0 miles
Clouds Mostly Cloudy 4600 ft
Dew Point 64 °F
Humidity 75%
Rainfall 0.00 in
Snow Depth Not available.
UV 0 out of 12
Pollen 5.20 out of 12
Air Quality Not available.
Flu Activity Not available.
METAR KFFA 170615Z AUTO 07003KT 10SM BKN046 22/18 A2996 RMK AO2 T02230176

More Conditions Fewer Conditions

10-Day Weather Forecast

Almanac

Astronomy

Sep. 17, 2014 Rise Set
Actual Time 6:47 AM EDT 7:07 PM EDT
Civil Twilight 6:21 AM EDT 7:33 PM EDT
Nautical Twilight 5:51 AM EDT 8:03 PM EDT
Astronomical Twilight 5:20 AM EDT 8:33 PM EDT
Moon 12:53 AM EDT 3:08 PM EDT
Length of Visible Light 13h 11m
Length of Day
12h 20m
Tomorrow will be 2m 16s shorter.
Last Quarter, 39% of the Moon is Illuminated
Today
Last Quarter
Sep 24
New
Oct 1
First Quarter
Oct 8
Full
Oct 15
Last Quarter

Today's Extremes

State Highs State Lows

Community

WunderPhotos

Upload Photos

1,753,970 photos uploaded!

Nearby

Snow Depth

Station Depth Elevation
No new snow has been reported.

Earthquake Activity

City Distance Mag. Time & Date
No recent earthquake activity has been reported nearby.
Minimum magnitude displayed is 2.5.

Coastal Water Temperatures

Place Temperature
Oregon Inlet Marina, NC 75.9 °F
Duck Pier, NC 77.0 °F
Hatteras, NC 80.1 °F
Money Point, VA 81.0 °F
Sewells Point, VA 75.9 °F
Chesapeake Bay Bridge Tunnel, VA 75.9 °F

Nearby Weather Stations